sensor_id;sensor_type;location;lat;lon;timestamp;P1;durP1;ratioP1;P2;durP2;ratioP2
26622;SDS011;14254;50.968;5.366;2022-12-18T00:01:44;89.72;;;33.38;;
26622;SDS011;14254;50.968;5.366;2022-12-18T00:04:16;91.70;;;31.17;;
26622;SDS011;14254;50.968;5.366;2022-12-18T00:06:45;80.28;;;26.77;;
26622;SDS011;14254;50.968;5.366;2022-12-18T00:09:11;104.65;;;33.55;;
26622;SDS011;14254;50.968;5.366;2022-12-18T00:11:36;92.60;;;31.90;;
26622;SDS011;14254;50.968;5.366;2022-12-18T00:14:02;92.05;;;30.75;;
26622;SDS011;14254;50.968;5.366;2022-12-18T00:16:28;105.47;;;33.65;;
26622;SDS011;14254;50.968;5.366;2022-12-18T00:18:57;96.72;;;30.42;;
26622;SDS011;14254;50.968;5.366;2022-12-18T00:21:23;90.05;;;31.05;;
26622;SDS011;14254;50.968;5.366;2022-12-18T00:23:49;93.35;;;30.33;;
26622;SDS011;14254;50.968;5.366;2022-12-18T00:26:25;82.85;;;31.48;;
26622;SDS011;14254;50.968;5.366;2022-12-18T00:28:52;79.28;;;28.85;;
26622;SDS011;14254;50.968;5.366;2022-12-18T00:31:19;78.20;;;28.83;;
26622;SDS011;14254;50.968;5.366;2022-12-18T00:33:47;84.85;;;30.88;;
26622;SDS011;14254;50.968;5.366;2022-12-18T00:36:16;96.07;;;33.00;;
26622;SDS011;14254;50.968;5.366;2022-12-18T00:38:44;83.78;;;30.13;;
26622;SDS011;14254;50.968;5.366;2022-12-18T00:41:10;84.43;;;29.50;;
26622;SDS011;14254;50.968;5.366;2022-12-18T00:43:37;81.30;;;28.70;;
26622;SDS011;14254;50.968;5.366;2022-12-18T00:46:04;78.82;;;27.77;;
26622;SDS011;14254;50.968;5.366;2022-12-18T00:48:30;84.35;;;30.92;;
26622;SDS011;14254;50.968;5.366;2022-12-18T00:50:56;80.80;;;27.83;;
26622;SDS011;14254;50.968;5.366;2022-12-18T00:53:22;78.93;;;24.13;;
26622;SDS011;14254;50.968;5.366;2022-12-18T00:55:47;72.22;;;28.75;;
26622;SDS011;14254;50.968;5.366;2022-12-18T00:58:14;78.63;;;28.02;;
26622;SDS011;14254;50.968;5.366;2022-12-18T01:00:41;76.75;;;29.80;;
26622;SDS011;14254;50.968;5.366;2022-12-18T01:03:07;72.50;;;27.85;;
26622;SDS011;14254;50.968;5.366;2022-12-18T01:05:34;78.15;;;27.33;;
26622;SDS011;14254;50.968;5.366;2022-12-18T01:08:05;59.28;;;22.63;;
26622;SDS011;14254;50.968;5.366;2022-12-18T01:10:30;79.40;;;27.63;;
26622;SDS011;14254;50.968;5.366;2022-12-18T01:12:56;78.47;;;27.27;;
26622;SDS011;14254;50.968;5.366;2022-12-18T01:15:21;73.43;;;25.95;;
26622;SDS011;14254;50.968;5.366;2022-12-18T01:17:47;72.68;;;27.67;;
26622;SDS011;14254;50.968;5.366;2022-12-18T01:20:13;85.55;;;27.90;;
26622;SDS011;14254;50.968;5.366;2022-12-18T01:22:39;74.93;;;26.80;;
26622;SDS011;14254;50.968;5.366;2022-12-18T01:25:04;88.22;;;27.73;;
26622;SDS011;14254;50.968;5.366;2022-12-18T01:27:31;67.68;;;26.83;;
26622;SDS011;14254;50.968;5.366;2022-12-18T01:29:58;70.20;;;25.80;;
26622;SDS011;14254;50.968;5.366;2022-12-18T01:32:24;68.80;;;23.20;;
26622;SDS011;14254;50.968;5.366;2022-12-18T01:34:49;68.03;;;25.10;;
26622;SDS011;14254;50.968;5.366;2022-12-18T01:37:15;73.88;;;26.42;;
26622;SDS011;14254;50.968;5.366;2022-12-18T01:39:40;77.88;;;27.85;;
26622;SDS011;14254;50.968;5.366;2022-12-18T01:42:14;47.85;;;21.45;;
26622;SDS011;14254;50.968;5.366;2022-12-18T01:47:44;69.03;;;25.17;;
26622;SDS011;14254;50.968;5.366;2022-12-18T01:55:22;70.85;;;26.02;;
26622;SDS011;14254;50.968;5.366;2022-12-18T01:57:52;70.45;;;28.25;;
26622;SDS011;14254;50.968;5.366;2022-12-18T02:00:21;66.13;;;27.58;;
26622;SDS011;14254;50.968;5.366;2022-12-18T02:02:47;72.80;;;28.05;;
26622;SDS011;14254;50.968;5.366;2022-12-18T02:05:15;71.85;;;29.13;;
26622;SDS011;14254;50.968;5.366;2022-12-18T02:13:25;73.82;;;27.67;;
26622;SDS011;14254;50.968;5.366;2022-12-18T02:18:50;77.57;;;29.75;;
26622;SDS011;14254;50.968;5.366;2022-12-18T02:24:54;74.07;;;28.83;;
26622;SDS011;14254;50.968;5.366;2022-12-18T02:27:07;71.05;;;26.15;;
26622;SDS011;14254;50.968;5.366;2022-12-18T02:32:08;75.35;;;24.90;;
26622;SDS011;14254;50.968;5.366;2022-12-18T02:34:39;59.97;;;24.50;;
26622;SDS011;14254;50.968;5.366;2022-12-18T02:37:06;59.92;;;23.10;;
26622;SDS011;14254;50.968;5.366;2022-12-18T02:39:36;66.55;;;24.83;;
26622;SDS011;14254;50.968;5.366;2022-12-18T02:42:03;66.18;;;25.38;;
26622;SDS011;14254;50.968;5.366;2022-12-18T02:44:33;69.60;;;27.15;;
26622;SDS011;14254;50.968;5.366;2022-12-18T02:47:10;71.85;;;25.25;;
26622;SDS011;14254;50.968;5.366;2022-12-18T03:00:29;76.10;;;26.88;;
26622;SDS011;14254;50.968;5.366;2022-12-18T03:08:27;63.60;;;24.45;;
26622;SDS011;14254;50.968;5.366;2022-12-18T03:10:59;71.78;;;24.52;;
26622;SDS011;14254;50.968;5.366;2022-12-18T03:13:52;63.28;;;23.30;;
26622;SDS011;14254;50.968;5.366;2022-12-18T03:16:22;67.32;;;25.40;;
26622;SDS011;14254;50.968;5.366;2022-12-18T03:21:28;58.92;;;22.65;;
26622;SDS011;14254;50.968;5.366;2022-12-18T03:24:01;52.35;;;19.65;;
26622;SDS011;14254;50.968;5.366;2022-12-18T03:26:31;61.67;;;21.83;;
26622;SDS011;14254;50.968;5.366;2022-12-18T03:28:59;48.55;;;19.63;;
26622;SDS011;14254;50.968;5.366;2022-12-18T03:31:31;59.00;;;21.75;;
26622;SDS011;14254;50.968;5.366;2022-12-18T03:33:58;47.25;;;19.27;;
26622;SDS011;14254;50.968;5.366;2022-12-18T03:36:27;54.03;;;20.52;;
26622;SDS011;14254;50.968;5.366;2022-12-18T03:38:55;54.15;;;20.23;;
26622;SDS011;14254;50.968;5.366;2022-12-18T03:41:37;57.55;;;23.02;;
26622;SDS011;14254;50.968;5.366;2022-12-18T03:44:29;52.28;;;21.55;;
26622;SDS011;14254;50.968;5.366;2022-12-18T03:47:05;51.80;;;20.35;;
26622;SDS011;14254;50.968;5.366;2022-12-18T03:49:35;59.72;;;21.33;;
26622;SDS011;14254;50.968;5.366;2022-12-18T03:54:41;58.50;;;21.27;;
26622;SDS011;14254;50.968;5.366;2022-12-18T03:57:10;52.25;;;19.15;;
26622;SDS011;14254;50.968;5.366;2022-12-18T03:59:43;62.65;;;22.08;;
26622;SDS011;14254;50.968;5.366;2022-12-18T04:02:10;54.15;;;21.17;;
26622;SDS011;14254;50.968;5.366;2022-12-18T04:04:37;62.65;;;21.67;;
26622;SDS011;14254;50.968;5.366;2022-12-18T04:07:05;57.63;;;22.02;;
26622;SDS011;14254;50.968;5.366;2022-12-18T04:09:32;60.20;;;22.27;;
26622;SDS011;14254;50.968;5.366;2022-12-18T04:11:59;55.28;;;21.20;;
26622;SDS011;14254;50.968;5.366;2022-12-18T04:14:24;55.35;;;21.73;;
26622;SDS011;14254;50.968;5.366;2022-12-18T04:16:50;57.58;;;21.25;;
26622;SDS011;14254;50.968;5.366;2022-12-18T04:19:16;65.85;;;22.95;;
26622;SDS011;14254;50.968;5.366;2022-12-18T04:21:41;58.05;;;20.05;;
26622;SDS011;14254;50.968;5.366;2022-12-18T04:24:07;68.93;;;22.00;;
26622;SDS011;14254;50.968;5.366;2022-12-18T04:26:33;57.58;;;21.70;;
26622;SDS011;14254;50.968;5.366;2022-12-18T04:28:59;49.20;;;20.42;;
26622;SDS011;14254;50.968;5.366;2022-12-18T04:31:25;52.15;;;20.42;;
26622;SDS011;14254;50.968;5.366;2022-12-18T04:33:51;57.17;;;20.52;;
26622;SDS011;14254;50.968;5.366;2022-12-18T04:36:17;49.95;;;20.33;;
26622;SDS011;14254;50.968;5.366;2022-12-18T04:38:42;53.40;;;20.60;;
26622;SDS011;14254;50.968;5.366;2022-12-18T04:41:08;56.10;;;19.73;;
26622;SDS011;14254;50.968;5.366;2022-12-18T04:43:34;52.00;;;20.27;;
26622;SDS011;14254;50.968;5.366;2022-12-18T04:46:03;46.65;;;19.35;;
26622;SDS011;14254;50.968;5.366;2022-12-18T04:48:30;43.20;;;14.07;;
26622;SDS011;14254;50.968;5.366;2022-12-18T04:50:56;53.75;;;20.27;;
26622;SDS011;14254;50.968;5.366;2022-12-18T04:53:21;47.10;;;18.13;;
26622;SDS011;14254;50.968;5.366;2022-12-18T04:55:47;57.53;;;21.42;;
26622;SDS011;14254;50.968;5.366;2022-12-18T04:58:13;55.75;;;20.88;;
26622;SDS011;14254;50.968;5.366;2022-12-18T05:00:38;53.92;;;22.00;;
26622;SDS011;14254;50.968;5.366;2022-12-18T05:03:04;54.55;;;19.88;;
26622;SDS011;14254;50.968;5.366;2022-12-18T05:05:30;59.65;;;21.75;;
26622;SDS011;14254;50.968;5.366;2022-12-18T05:07:56;52.63;;;19.52;;
26622;SDS011;14254;50.968;5.366;2022-12-18T05:10:21;43.97;;;19.33;;
26622;SDS011;14254;50.968;5.366;2022-12-18T05:12:47;59.50;;;21.23;;
26622;SDS011;14254;50.968;5.366;2022-12-18T05:15:28;50.17;;;20.65;;
26622;SDS011;14254;50.968;5.366;2022-12-18T05:17:56;55.55;;;19.63;;
26622;SDS011;14254;50.968;5.366;2022-12-18T05:20:23;47.92;;;19.65;;
26622;SDS011;14254;50.968;5.366;2022-12-18T05:22:49;45.53;;;19.80;;
26622;SDS011;14254;50.968;5.366;2022-12-18T05:25:15;55.53;;;20.25;;
26622;SDS011;14254;50.968;5.366;2022-12-18T05:27:41;48.80;;;18.38;;
26622;SDS011;14254;50.968;5.366;2022-12-18T05:30:07;50.00;;;20.20;;
26622;SDS011;14254;50.968;5.366;2022-12-18T05:32:33;47.85;;;18.90;;
26622;SDS011;14254;50.968;5.366;2022-12-18T05:34:59;54.10;;;19.00;;
26622;SDS011;14254;50.968;5.366;2022-12-18T05:37:25;45.03;;;17.33;;
26622;SDS011;14254;50.968;5.366;2022-12-18T05:39:51;55.08;;;19.25;;
26622;SDS011;14254;50.968;5.366;2022-12-18T05:42:16;42.83;;;16.35;;
26622;SDS011;14254;50.968;5.366;2022-12-18T05:44:43;44.13;;;16.27;;
26622;SDS011;14254;50.968;5.366;2022-12-18T05:47:08;43.05;;;17.63;;
26622;SDS011;14254;50.968;5.366;2022-12-18T05:49:34;50.15;;;19.33;;
26622;SDS011;14254;50.968;5.366;2022-12-18T05:51:59;54.97;;;19.60;;
26622;SDS011;14254;50.968;5.366;2022-12-18T05:54:28;48.38;;;20.05;;
26622;SDS011;14254;50.968;5.366;2022-12-18T05:56:54;55.15;;;19.95;;
26622;SDS011;14254;50.968;5.366;2022-12-18T05:59:20;50.35;;;20.02;;
26622;SDS011;14254;50.968;5.366;2022-12-18T06:01:45;44.13;;;19.77;;
26622;SDS011;14254;50.968;5.366;2022-12-18T06:04:11;49.70;;;18.52;;
26622;SDS011;14254;50.968;5.366;2022-12-18T06:06:37;44.13;;;16.92;;
26622;SDS011;14254;50.968;5.366;2022-12-18T06:09:03;49.65;;;19.05;;
26622;SDS011;14254;50.968;5.366;2022-12-18T06:11:33;45.35;;;18.42;;
26622;SDS011;14254;50.968;5.366;2022-12-18T06:14:03;47.13;;;18.55;;
26622;SDS011;14254;50.968;5.366;2022-12-18T06:16:30;45.80;;;19.33;;
26622;SDS011;14254;50.968;5.366;2022-12-18T06:18:59;42.40;;;18.40;;
26622;SDS011;14254;50.968;5.366;2022-12-18T06:21:26;43.70;;;16.88;;
26622;SDS011;14254;50.968;5.366;2022-12-18T06:23:53;35.40;;;16.13;;
26622;SDS011;14254;50.968;5.366;2022-12-18T06:26:18;42.25;;;17.88;;
26622;SDS011;14254;50.968;5.366;2022-12-18T06:28:44;45.55;;;17.45;;
26622;SDS011;14254;50.968;5.366;2022-12-18T06:31:10;36.83;;;15.38;;
26622;SDS011;14254;50.968;5.366;2022-12-18T06:33:36;39.35;;;16.75;;
26622;SDS011;14254;50.968;5.366;2022-12-18T06:36:07;41.72;;;16.92;;
26622;SDS011;14254;50.968;5.366;2022-12-18T06:41:05;34.40;;;14.30;;
26622;SDS011;14254;50.968;5.366;2022-12-18T06:43:34;49.65;;;15.55;;
26622;SDS011;14254;50.968;5.366;2022-12-18T06:46:00;32.55;;;14.13;;
26622;SDS011;14254;50.968;5.366;2022-12-18T06:48:26;43.85;;;14.27;;
26622;SDS011;14254;50.968;5.366;2022-12-18T06:50:52;28.42;;;11.80;;
26622;SDS011;14254;50.968;5.366;2022-12-18T06:53:18;29.60;;;14.23;;
26622;SDS011;14254;50.968;5.366;2022-12-18T06:55:43;31.52;;;13.85;;
26622;SDS011;14254;50.968;5.366;2022-12-18T06:58:09;36.53;;;14.20;;
26622;SDS011;14254;50.968;5.366;2022-12-18T07:00:35;35.03;;;14.05;;
26622;SDS011;14254;50.968;5.366;2022-12-18T07:03:00;37.33;;;15.05;;
26622;SDS011;14254;50.968;5.366;2022-12-18T07:05:26;28.92;;;15.10;;
26622;SDS011;14254;50.968;5.366;2022-12-18T07:07:52;27.10;;;14.30;;
26622;SDS011;14254;50.968;5.366;2022-12-18T07:10:17;33.40;;;14.98;;
26622;SDS011;14254;50.968;5.366;2022-12-18T07:12:43;30.58;;;13.75;;
26622;SDS011;14254;50.968;5.366;2022-12-18T07:15:10;29.20;;;14.02;;
26622;SDS011;14254;50.968;5.366;2022-12-18T07:17:35;42.50;;;15.07;;
26622;SDS011;14254;50.968;5.366;2022-12-18T07:20:01;42.03;;;16.08;;
26622;SDS011;14254;50.968;5.366;2022-12-18T07:22:28;30.33;;;15.30;;
26622;SDS011;14254;50.968;5.366;2022-12-18T07:24:54;32.63;;;14.25;;
26622;SDS011;14254;50.968;5.366;2022-12-18T07:27:20;34.53;;;14.35;;
26622;SDS011;14254;50.968;5.366;2022-12-18T07:29:46;32.20;;;15.52;;
26622;SDS011;14254;50.968;5.366;2022-12-18T07:32:12;32.75;;;14.65;;
26622;SDS011;14254;50.968;5.366;2022-12-18T07:34:38;26.25;;;12.73;;
26622;SDS011;14254;50.968;5.366;2022-12-18T07:37:03;36.38;;;14.82;;
26622;SDS011;14254;50.968;5.366;2022-12-18T07:39:29;33.80;;;14.52;;
26622;SDS011;14254;50.968;5.366;2022-12-18T07:41:55;36.75;;;15.15;;
26622;SDS011;14254;50.968;5.366;2022-12-18T07:44:39;31.15;;;15.02;;
26622;SDS011;14254;50.968;5.366;2022-12-18T07:47:05;41.67;;;15.00;;
26622;SDS011;14254;50.968;5.366;2022-12-18T07:49:31;31.77;;;15.60;;
26622;SDS011;14254;50.968;5.366;2022-12-18T07:51:56;47.70;;;17.67;;
26622;SDS011;14254;50.968;5.366;2022-12-18T07:54:23;40.55;;;20.13;;
26622;SDS011;14254;50.968;5.366;2022-12-18T07:56:49;55.72;;;20.60;;
26622;SDS011;14254;50.968;5.366;2022-12-18T07:59:15;43.42;;;18.05;;
26622;SDS011;14254;50.968;5.366;2022-12-18T08:01:41;45.50;;;18.48;;
26622;SDS011;14254;50.968;5.366;2022-12-18T08:04:06;49.53;;;18.33;;
26622;SDS011;14254;50.968;5.366;2022-12-18T08:06:32;37.33;;;16.95;;
26622;SDS011;14254;50.968;5.366;2022-12-18T08:08:58;36.60;;;16.33;;
26622;SDS011;14254;50.968;5.366;2022-12-18T08:11:24;34.97;;;16.20;;
26622;SDS011;14254;50.968;5.366;2022-12-18T08:13:51;30.30;;;15.38;;
26622;SDS011;14254;50.968;5.366;2022-12-18T08:16:17;33.15;;;14.63;;
26622;SDS011;14254;50.968;5.366;2022-12-18T08:18:43;35.53;;;14.85;;
26622;SDS011;14254;50.968;5.366;2022-12-18T08:21:13;36.53;;;14.90;;
26622;SDS011;14254;50.968;5.366;2022-12-18T08:23:43;35.03;;;15.20;;
26622;SDS011;14254;50.968;5.366;2022-12-18T08:26:10;46.38;;;16.30;;
26622;SDS011;14254;50.968;5.366;2022-12-18T08:28:36;37.42;;;14.27;;
26622;SDS011;14254;50.968;5.366;2022-12-18T08:31:02;38.15;;;15.77;;
26622;SDS011;14254;50.968;5.366;2022-12-18T08:33:28;34.97;;;15.07;;
26622;SDS011;14254;50.968;5.366;2022-12-18T08:35:54;33.70;;;14.95;;
26622;SDS011;14254;50.968;5.366;2022-12-18T08:38:20;31.63;;;14.15;;
26622;SDS011;14254;50.968;5.366;2022-12-18T08:40:46;34.70;;;16.38;;
26622;SDS011;14254;50.968;5.366;2022-12-18T08:43:11;40.13;;;15.30;;
26622;SDS011;14254;50.968;5.366;2022-12-18T08:45:56;39.35;;;14.70;;
26622;SDS011;14254;50.968;5.366;2022-12-18T08:48:21;31.42;;;14.02;;
26622;SDS011;14254;50.968;5.366;2022-12-18T08:50:57;29.92;;;14.35;;
26622;SDS011;14254;50.968;5.366;2022-12-18T08:53:24;37.47;;;14.50;;
26622;SDS011;14254;50.968;5.366;2022-12-18T08:55:51;37.70;;;13.93;;
26622;SDS011;14254;50.968;5.366;2022-12-18T08:58:16;31.60;;;14.90;;
26622;SDS011;14254;50.968;5.366;2022-12-18T09:00:42;34.25;;;15.23;;
26622;SDS011;14254;50.968;5.366;2022-12-18T09:03:12;34.53;;;14.90;;
26622;SDS011;14254;50.968;5.366;2022-12-18T09:05:38;43.65;;;14.65;;
26622;SDS011;14254;50.968;5.366;2022-12-18T09:08:04;37.67;;;15.90;;
26622;SDS011;14254;50.968;5.366;2022-12-18T09:10:29;34.47;;;14.75;;
26622;SDS011;14254;50.968;5.366;2022-12-18T09:12:55;35.40;;;15.80;;
26622;SDS011;14254;50.968;5.366;2022-12-18T09:15:21;28.10;;;13.52;;
26622;SDS011;14254;50.968;5.366;2022-12-18T09:17:47;31.02;;;14.60;;
26622;SDS011;14254;50.968;5.366;2022-12-18T09:20:14;29.08;;;15.40;;
26622;SDS011;14254;50.968;5.366;2022-12-18T09:22:41;32.75;;;16.17;;
26622;SDS011;14254;50.968;5.366;2022-12-18T09:25:07;40.63;;;17.17;;
26622;SDS011;14254;50.968;5.366;2022-12-18T09:27:33;43.00;;;17.80;;
26622;SDS011;14254;50.968;5.366;2022-12-18T09:29:59;35.85;;;16.60;;
26622;SDS011;14254;50.968;5.366;2022-12-18T09:32:24;39.70;;;17.33;;
26622;SDS011;14254;50.968;5.366;2022-12-18T09:34:50;38.90;;;17.85;;
26622;SDS011;14254;50.968;5.366;2022-12-18T09:37:16;34.97;;;16.70;;
26622;SDS011;14254;50.968;5.366;2022-12-18T09:39:41;33.33;;;16.05;;
26622;SDS011;14254;50.968;5.366;2022-12-18T09:42:09;39.45;;;17.02;;
26622;SDS011;14254;50.968;5.366;2022-12-18T09:44:47;36.03;;;16.00;;
26622;SDS011;14254;50.968;5.366;2022-12-18T09:47:25;35.88;;;15.98;;
26622;SDS011;14254;50.968;5.366;2022-12-18T09:49:59;30.67;;;13.98;;
26622;SDS011;14254;50.968;5.366;2022-12-18T09:52:30;29.85;;;13.90;;
26622;SDS011;14254;50.968;5.366;2022-12-18T09:55:19;34.60;;;16.38;;
26622;SDS011;14254;50.968;5.366;2022-12-18T09:57:56;33.50;;;16.10;;
26622;SDS011;14254;50.968;5.366;2022-12-18T10:00:27;31.67;;;14.55;;
26622;SDS011;14254;50.968;5.366;2022-12-18T10:02:56;32.13;;;15.93;;
26622;SDS011;14254;50.968;5.366;2022-12-18T10:10:59;31.40;;;15.20;;
26622;SDS011;14254;50.968;5.366;2022-12-18T10:16:12;27.77;;;13.60;;
26622;SDS011;14254;50.968;5.366;2022-12-18T10:18:56;29.23;;;14.35;;
26622;SDS011;14254;50.968;5.366;2022-12-18T10:24:33;29.58;;;14.90;;
26622;SDS011;14254;50.968;5.366;2022-12-18T10:27:14;32.72;;;15.07;;
26622;SDS011;14254;50.968;5.366;2022-12-18T10:29:44;32.40;;;14.68;;
26622;SDS011;14254;50.968;5.366;2022-12-18T10:32:15;33.67;;;15.48;;
26622;SDS011;14254;50.968;5.366;2022-12-18T10:34:51;30.15;;;15.95;;
26622;SDS011;14254;50.968;5.366;2022-12-18T10:37:19;30.73;;;15.25;;
26622;SDS011;14254;50.968;5.366;2022-12-18T10:42:32;29.20;;;15.07;;
26622;SDS011;14254;50.968;5.366;2022-12-18T10:45:02;27.80;;;15.05;;
26622;SDS011;14254;50.968;5.366;2022-12-18T10:47:33;29.38;;;16.95;;
26622;SDS011;14254;50.968;5.366;2022-12-18T10:49:59;37.30;;;17.55;;
26622;SDS011;14254;50.968;5.366;2022-12-18T10:52:26;33.45;;;16.17;;
26622;SDS011;14254;50.968;5.366;2022-12-18T10:54:59;33.63;;;16.15;;
26622;SDS011;14254;50.968;5.366;2022-12-18T10:57:32;36.60;;;18.88;;
26622;SDS011;14254;50.968;5.366;2022-12-18T11:02:44;34.13;;;17.17;;
26622;SDS011;14254;50.968;5.366;2022-12-18T11:05:31;32.00;;;16.83;;
26622;SDS011;14254;50.968;5.366;2022-12-18T11:07:57;36.00;;;16.92;;
26622;SDS011;14254;50.968;5.366;2022-12-18T11:10:31;40.15;;;19.92;;
26622;SDS011;14254;50.968;5.366;2022-12-18T11:13:08;35.45;;;17.27;;
26622;SDS011;14254;50.968;5.366;2022-12-18T11:15:44;36.42;;;18.13;;
26622;SDS011;14254;50.968;5.366;2022-12-18T11:18:17;34.10;;;17.27;;
26622;SDS011;14254;50.968;5.366;2022-12-18T11:20:51;37.33;;;17.83;;
26622;SDS011;14254;50.968;5.366;2022-12-18T11:23:20;31.80;;;16.27;;
26622;SDS011;14254;50.968;5.366;2022-12-18T11:25:51;34.72;;;17.45;;
26622;SDS011;14254;50.968;5.366;2022-12-18T11:31:11;48.20;;;23.75;;
26622;SDS011;14254;50.968;5.366;2022-12-18T11:33:41;36.55;;;18.23;;
26622;SDS011;14254;50.968;5.366;2022-12-18T11:36:10;38.10;;;17.50;;
26622;SDS011;14254;50.968;5.366;2022-12-18T11:38:39;30.27;;;16.60;;
26622;SDS011;14254;50.968;5.366;2022-12-18T11:41:19;32.08;;;18.05;;
26622;SDS011;14254;50.968;5.366;2022-12-18T11:43:51;38.63;;;17.23;;
26622;SDS011;14254;50.968;5.366;2022-12-18T11:46:28;31.70;;;17.02;;
26622;SDS011;14254;50.968;5.366;2022-12-18T11:52:01;34.70;;;17.02;;
26622;SDS011;14254;50.968;5.366;2022-12-18T11:54:34;38.22;;;17.63;;
26622;SDS011;14254;50.968;5.366;2022-12-18T12:00:03;30.77;;;16.80;;
26622;SDS011;14254;50.968;5.366;2022-12-18T12:05:20;31.17;;;17.25;;
26622;SDS011;14254;50.968;5.366;2022-12-18T12:08:18;33.50;;;16.85;;
26622;SDS011;14254;50.968;5.366;2022-12-18T12:19:56;33.50;;;16.75;;
26622;SDS011;14254;50.968;5.366;2022-12-18T12:25:21;27.95;;;15.50;;
26622;SDS011;14254;50.968;5.366;2022-12-18T12:28:42;34.45;;;18.20;;
26622;SDS011;14254;50.968;5.366;2022-12-18T12:36:17;33.97;;;18.60;;
26622;SDS011;14254;50.968;5.366;2022-12-18T12:39:00;45.72;;;18.75;;
26622;SDS011;14254;50.968;5.366;2022-12-18T12:41:31;36.67;;;19.15;;
26622;SDS011;14254;50.968;5.366;2022-12-18T12:44:30;39.78;;;19.83;;
26622;SDS011;14254;50.968;5.366;2022-12-18T12:47:06;40.90;;;19.98;;
26622;SDS011;14254;50.968;5.366;2022-12-18T12:49:39;38.35;;;18.83;;
26622;SDS011;14254;50.968;5.366;2022-12-18T12:52:12;38.25;;;20.00;;
26622;SDS011;14254;50.968;5.366;2022-12-18T12:54:42;36.33;;;19.25;;
26622;SDS011;14254;50.968;5.366;2022-12-18T12:57:11;37.70;;;18.52;;
26622;SDS011;14254;50.968;5.366;2022-12-18T13:00:00;38.08;;;20.27;;
26622;SDS011;14254;50.968;5.366;2022-12-18T13:05:39;43.45;;;21.30;;
26622;SDS011;14254;50.968;5.366;2022-12-18T13:08:26;34.25;;;18.27;;
26622;SDS011;14254;50.968;5.366;2022-12-18T13:10:56;34.85;;;18.90;;
26622;SDS011;14254;50.968;5.366;2022-12-18T13:13:49;36.80;;;19.40;;
26622;SDS011;14254;50.968;5.366;2022-12-18T13:16:21;53.70;;;25.50;;
26622;SDS011;14254;50.968;5.366;2022-12-18T13:18:52;39.55;;;22.15;;
26622;SDS011;14254;50.968;5.366;2022-12-18T13:21:24;43.78;;;23.92;;
26622;SDS011;14254;50.968;5.366;2022-12-18T13:23:52;42.40;;;23.35;;
26622;SDS011;14254;50.968;5.366;2022-12-18T13:36:42;35.33;;;18.17;;
26622;SDS011;14254;50.968;5.366;2022-12-18T13:41:50;33.90;;;18.67;;
26622;SDS011;14254;50.968;5.366;2022-12-18T13:46:58;35.35;;;19.15;;
26622;SDS011;14254;50.968;5.366;2022-12-18T13:52:17;33.88;;;19.35;;
26622;SDS011;14254;50.968;5.366;2022-12-18T13:54:47;37.53;;;19.20;;
26622;SDS011;14254;50.968;5.366;2022-12-18T13:59:56;38.20;;;19.23;;
26622;SDS011;14254;50.968;5.366;2022-12-18T14:02:23;38.72;;;19.38;;
26622;SDS011;14254;50.968;5.366;2022-12-18T14:04:51;32.58;;;18.58;;
26622;SDS011;14254;50.968;5.366;2022-12-18T14:09:46;39.35;;;20.15;;
26622;SDS011;14254;50.968;5.366;2022-12-18T14:12:16;40.13;;;20.08;;
26622;SDS011;14254;50.968;5.366;2022-12-18T14:15:31;36.58;;;18.40;;
26622;SDS011;14254;50.968;5.366;2022-12-18T14:17:59;42.47;;;19.40;;
26622;SDS011;14254;50.968;5.366;2022-12-18T14:20:29;37.55;;;19.10;;
26622;SDS011;14254;50.968;5.366;2022-12-18T14:22:57;33.88;;;17.92;;
26622;SDS011;14254;50.968;5.366;2022-12-18T14:25:25;38.38;;;20.52;;
26622;SDS011;14254;50.968;5.366;2022-12-18T14:28:02;41.13;;;21.70;;
26622;SDS011;14254;50.968;5.366;2022-12-18T14:30:44;43.03;;;20.88;;
26622;SDS011;14254;50.968;5.366;2022-12-18T14:33:12;45.95;;;25.23;;
26622;SDS011;14254;50.968;5.366;2022-12-18T14:35:58;39.60;;;22.15;;
26622;SDS011;14254;50.968;5.366;2022-12-18T14:38:27;39.78;;;21.15;;
26622;SDS011;14254;50.968;5.366;2022-12-18T14:43:35;44.63;;;22.20;;
26622;SDS011;14254;50.968;5.366;2022-12-18T14:46:03;43.42;;;20.80;;
26622;SDS011;14254;50.968;5.366;2022-12-18T14:53:36;44.33;;;22.55;;
26622;SDS011;14254;50.968;5.366;2022-12-18T14:56:03;41.33;;;20.42;;
26622;SDS011;14254;50.968;5.366;2022-12-18T14:58:38;46.80;;;21.17;;
26622;SDS011;14254;50.968;5.366;2022-12-18T15:01:04;42.38;;;22.05;;
26622;SDS011;14254;50.968;5.366;2022-12-18T15:03:30;39.85;;;20.95;;
26622;SDS011;14254;50.968;5.366;2022-12-18T15:05:56;39.17;;;19.80;;
26622;SDS011;14254;50.968;5.366;2022-12-18T15:08:49;44.95;;;21.33;;
26622;SDS011;14254;50.968;5.366;2022-12-18T15:11:28;43.55;;;22.05;;
26622;SDS011;14254;50.968;5.366;2022-12-18T15:14:23;42.97;;;21.88;;
26622;SDS011;14254;50.968;5.366;2022-12-18T15:16:55;49.35;;;23.30;;
26622;SDS011;14254;50.968;5.366;2022-12-18T15:19:22;48.13;;;22.73;;
26622;SDS011;14254;50.968;5.366;2022-12-18T15:21:56;49.92;;;25.75;;
26622;SDS011;14254;50.968;5.366;2022-12-18T15:24:24;49.60;;;24.45;;
26622;SDS011;14254;50.968;5.366;2022-12-18T15:26:54;54.50;;;26.77;;
26622;SDS011;14254;50.968;5.366;2022-12-18T15:29:21;53.03;;;28.15;;
26622;SDS011;14254;50.968;5.366;2022-12-18T15:31:59;62.63;;;30.50;;
26622;SDS011;14254;50.968;5.366;2022-12-18T15:34:29;74.00;;;32.53;;
26622;SDS011;14254;50.968;5.366;2022-12-18T15:36:56;61.67;;;31.02;;
26622;SDS011;14254;50.968;5.366;2022-12-18T15:39:21;59.42;;;29.02;;
26622;SDS011;14254;50.968;5.366;2022-12-18T15:41:47;58.70;;;29.05;;
26622;SDS011;14254;50.968;5.366;2022-12-18T15:44:32;65.82;;;28.58;;
26622;SDS011;14254;50.968;5.366;2022-12-18T15:46:58;51.95;;;26.45;;
26622;SDS011;14254;50.968;5.366;2022-12-18T15:49:24;53.80;;;25.48;;
26622;SDS011;14254;50.968;5.366;2022-12-18T15:51:53;51.97;;;25.83;;
26622;SDS011;14254;50.968;5.366;2022-12-18T15:54:22;59.67;;;30.00;;
26622;SDS011;14254;50.968;5.366;2022-12-18T15:57:09;52.63;;;27.77;;
26622;SDS011;14254;50.968;5.366;2022-12-18T15:59:47;60.33;;;31.08;;
26622;SDS011;14254;50.968;5.366;2022-12-18T16:02:16;64.32;;;32.70;;
26622;SDS011;14254;50.968;5.366;2022-12-18T16:04:43;66.80;;;35.28;;
26622;SDS011;14254;50.968;5.366;2022-12-18T16:07:09;66.35;;;34.72;;
26622;SDS011;14254;50.968;5.366;2022-12-18T16:09:35;64.18;;;34.72;;
26622;SDS011;14254;50.968;5.366;2022-12-18T16:12:01;76.88;;;43.45;;
26622;SDS011;14254;50.968;5.366;2022-12-18T16:14:28;73.85;;;37.72;;
26622;SDS011;14254;50.968;5.366;2022-12-18T16:16:58;57.78;;;29.60;;
26622;SDS011;14254;50.968;5.366;2022-12-18T16:19:26;36.87;;;20.80;;
26622;SDS011;14254;50.968;5.366;2022-12-18T16:21:52;43.55;;;23.60;;
26622;SDS011;14254;50.968;5.366;2022-12-18T16:24:21;48.35;;;22.35;;
26622;SDS011;14254;50.968;5.366;2022-12-18T16:26:48;48.30;;;24.17;;
26622;SDS011;14254;50.968;5.366;2022-12-18T16:29:16;47.75;;;23.83;;
26622;SDS011;14254;50.968;5.366;2022-12-18T16:31:43;49.03;;;26.13;;
26622;SDS011;14254;50.968;5.366;2022-12-18T16:37:11;52.85;;;25.90;;
26622;SDS011;14254;50.968;5.366;2022-12-18T16:39:40;48.70;;;23.40;;
26622;SDS011;14254;50.968;5.366;2022-12-18T16:42:09;44.03;;;23.13;;
26622;SDS011;14254;50.968;5.366;2022-12-18T16:44:41;40.55;;;21.08;;